Página principal
METAR-TAF:

METAR-TAF

Aeroportos :

Aeroporto Internacional de Mitiga

Trípoli, Líbia

latitude: 32-54N, longitude: 13-17E, altura: 11 m

Observação actual do tempo

O boletim foi feito há 1 hora e 13 minutos, às 08:55 UTC
Vento 10 kt de este
Temperatura 30°C
Humidade 62%
Pressão 1016 hPa
Visibilidade: 7000 m
Poucas nuvensa uma altura de 2500 ft

METAR: HLLM 180855Z 08010KT 7000 FEW025 30/22 Q1016

Hora: 12:08 (10:08 UTC)

Previsão

O boletim foi feito há 17 horas e 8 minutos, às 17:00 UTC
Previsão válida de 17 às 18 UTC a 18 às 18 UTC
Vento 12 kt de este
Visibilidade 10 km ou mais
sem nuvens abaixo de 1500 metros e sem cumulonimbus
Tornando-se
de 17 às 00 UTC a 18 às 02 UTC
Vento 2 kt com direcção variável
Visibilidade: 8000 m
Tornando-se
de 18 às 06 UTC a 18 às 08 UTC
Vento 10 kt de es-nordeste

TAF: HLLM 171700Z 1718/1818 09012KT CAVOK BECMG 1700/1802 VRB02KT 8000 NSC BECMG 1806/1808 06010KT

Observações e previsões do tempo de mais de 4000 aeroportos (mensagens METAR e TAF).

As estações disponíveis são os pontos amarelos e vermelhos sobre o mapa.

Mova o rato sobre o mapa para ver o nome da estação.

Depois clique no ponto para visualizar as observações e previsões meteorológicas.

Para alterar o mapa : clique nos botões verdes com uma cruz preta para aumentar o zoom; no botão verde com uma pitada de zoom; ou nas setas verdes para mapas adjacentes.


METAR-TAF: